Baigorrita, Argentina
Current Conditions -  °F | °C
As of 3:00 AM on Saturday 29 Nov 2014 (Local Time) from SAAR Reporting Station
Clear Clear  
Wind Chill: 22°   Ceiling: Unl
Heat Index: 22°   Visibility: 6mi
Dew Point: 16°   Wind: 10mph
Humidity: 69%   Direction: 50°NE
Pressure: 29.71"   Gusts: NA
Location:  34.75°S, 60.91°W
Report Text: SAAR 290600Z 05009KT CAVOK 22/16 Q1006
Loading
Personal Weather Stations






























Interactive Weather Map New forecast layout! Learn more

10-Day Weather Forecast

Advertisements
Track Severe Weather on mobile